Descanso, CA

11:47 PM PST on February 26, 2017 (GMT -0800)
Descanso/Townhall area | | Change Station
Active Advisory: Wind Advisory

Elev 3491 ft 32.85 °N, 116.62 °W | Updated 25 seconds ago

Overcast
Overcast
41.2 °F
Feels Like 41 °F
N
0.0
Wind Variable Wind from South
Gusts 0.0 mph

Today
High -- | Low -- °F
--% Chance of Precip.
Yesterday
High -- | Low -- °F
Precip. -- in
Pressure 29.90 in
Visibility -9999.0 miles
Clouds
Windchill 41 °F
Dew Point 41 °F
Humidity 99%
Rainfall 0.20 in
Snow Depth Not available.
6:17 AM 5:41 PM
New Moon, 1% visible
METAR KCZZ 270652Z AUTO 22008KT 07/07 A2992 RMK AO1 SLP124 T00670067
Pressure 29.90 in
Visibility -9999.0 miles
Clouds
Windchill 41 °F
Dew Point 41 °F
Humidity 99%
Rainfall 0.20 in
Snow Depth Not available.
6:17 AM 5:41 PM
New Moon, 1% visible
METAR KCZZ 270652Z AUTO 22008KT 07/07 A2992 RMK AO1 SLP124 T00670067

Get Your Daily Forecast Email!

Thanks for signing up!

Be on the lookout for a verification email in your inbox.

You'll start receiving the daily forecast at 8 AM.

×

10-Day Weather Forecast

Almanac

Astronomy

Feb. 26, 2017 Rise Set
Actual Time
Civil Twilight
Nautical Twilight
Astronomical Twilight
Moon
Length of Visible Light
Length of Day
Tomorrow will be .
, % of the Moon is Illuminated

Today's Extremes

State Highs State Lows

Community

WunderPhotos

Upload Photos

1,962,540 photos uploaded!

WunderBlog® & News

Nearby

Air Quality

  Air Quality AQ Index Pollutant
Not available.

Snow Depth

Station Depth Elevation

Earthquake Activity

City Distance Mag. Time & Date
Minimum magnitude displayed is 2.5.

Coastal Water Temperatures

Place Temperature

Stations

Nearby Weather Stations

Station Location Temp. Windchill Dew Point Humidity Wind Precip. Elev Updated Type
                   

Watches & Warnings

Wind Advisory
Issued: 9:36 PM PST Feb. 26, 2017 – National Weather Service

... Wind Advisory remains in effect until 10 PM PST Monday...

* winds... west 20 to 30 mph, with gusts to 50 mph. Isolated
gusts to 65 mph at times in the most wind-prone areas.

* Timing... strongest winds are expected late tonight into Monday
morning.

* Location... strongest winds are expected near Mountain Ridge
tops onto the desert slopes of the mountains and in the
northern Coachella Valley below the San Gorgonio Pass.

* Impacts... driving will be hazardous for motorists in high
profile vehicles.

Precautionary/preparedness actions...

A Wind Advisory means that sustained winds of 35 mph, or gusts of
50 mph or more are expected. Winds this strong can make driving
difficult... especially for motorists in high profile vehicles.
Use extra caution.



Jmb